createdAt,value
2023-04-22T00:00:55.109Z,5.35
2023-04-22T00:03:02.073Z,4.80
2023-04-22T00:05:07.829Z,3.78
2023-04-22T00:07:13.553Z,6.10
2023-04-22T00:09:18.320Z,5.32
2023-04-22T00:11:26.416Z,5.43
2023-04-22T00:13:31.322Z,5.68
2023-04-22T00:15:36.498Z,4.80
2023-04-22T00:17:42.903Z,3.90
2023-04-22T00:19:47.804Z,5.82
2023-04-22T00:21:52.637Z,5.78
2023-04-22T00:23:57.507Z,5.50
2023-04-22T00:26:02.853Z,8.07
2023-04-22T00:28:10.338Z,4.28
2023-04-22T00:30:16.019Z,4.55
2023-04-22T00:32:22.697Z,6.70
2023-04-22T00:34:28.015Z,7.80
2023-04-22T00:36:32.769Z,6.22
2023-04-22T00:38:37.708Z,7.57
2023-04-22T00:40:42.575Z,5.47
2023-04-22T00:42:47.571Z,5.32
2023-04-22T00:44:56.234Z,4.80
2023-04-22T00:47:02.295Z,4.60
2023-04-22T00:49:07.448Z,4.60
2023-04-22T00:51:12.297Z,7.38
2023-04-22T00:53:17.122Z,6.22
2023-04-22T00:55:22.229Z,6.18
2023-04-22T00:57:27.331Z,5.15
2023-04-22T00:59:32.237Z,9.65
2023-04-22T01:01:39.833Z,5.43
2023-04-22T01:03:45.876Z,5.30
2023-04-22T01:05:51.584Z,5.95
2023-04-22T01:07:56.295Z,6.07
2023-04-22T01:10:01.797Z,5.90
2023-04-22T01:12:06.884Z,5.57
2023-04-22T01:14:11.684Z,6.90
2023-04-22T01:16:16.886Z,4.72
2023-04-22T01:18:24.825Z,5.38
2023-04-22T01:20:31.018Z,7.00
2023-04-22T01:22:40.609Z,4.25
2023-04-22T01:24:49.046Z,6.25
2023-04-22T01:26:53.957Z,4.57
2023-04-22T01:28:59.007Z,6.47
2023-04-22T01:31:04.068Z,7.00
2023-04-22T01:33:09.655Z,5.93
2023-04-22T01:35:15.266Z,6.00
2023-04-22T01:37:20.812Z,6.68
2023-04-22T01:39:25.771Z,4.22
2023-04-22T01:41:33.459Z,7.05
2023-04-22T01:43:40.510Z,8.30
2023-04-22T01:45:45.618Z,6.45
2023-04-22T01:47:51.000Z,7.68
2023-04-22T01:49:57.865Z,6.35
2023-04-22T01:52:02.625Z,7.30
2023-04-22T01:54:08.266Z,4.63
2023-04-22T01:56:13.295Z,5.15
2023-04-22T01:58:20.673Z,5.78
2023-04-22T02:00:26.068Z,7.15
2023-04-22T02:02:31.328Z,5.13
2023-04-22T02:04:36.724Z,5.82
2023-04-22T02:06:41.577Z,5.40
2023-04-22T02:08:46.552Z,7.72
2023-04-22T02:10:52.964Z,5.47
2023-04-22T02:12:57.751Z,8.10
2023-04-22T02:15:05.326Z,5.55
2023-04-22T02:17:10.214Z,6.70
2023-04-22T02:19:15.223Z,6.32
2023-04-22T02:21:20.168Z,5.82
2023-04-22T02:23:25.196Z,5.88
2023-04-22T02:25:29.991Z,6.40
2023-04-22T02:27:34.800Z,4.93
2023-04-22T02:29:40.348Z,7.20
2023-04-22T02:31:48.574Z,8.73
2023-04-22T02:33:53.395Z,7.22
2023-04-22T02:35:58.319Z,7.07
2023-04-22T02:38:03.115Z,6.95
2023-04-22T02:40:10.093Z,5.57
2023-04-22T02:42:14.896Z,4.65
2023-04-22T02:44:19.760Z,7.05
2023-04-22T02:46:24.641Z,6.05
2023-04-22T02:48:32.018Z,4.85
2023-04-22T02:50:36.750Z,6.82
2023-04-22T02:52:41.627Z,5.25
2023-04-22T02:54:46.682Z,5.43
2023-04-22T02:56:51.508Z,5.40
2023-04-22T02:58:56.264Z,6.47
2023-04-22T03:01:01.399Z,6.53
2023-04-22T03:03:06.901Z,8.88
2023-04-22T03:05:16.172Z,6.05
2023-04-22T03:07:21.150Z,6.13
2023-04-22T03:09:26.564Z,5.53
2023-04-22T03:11:31.504Z,5.65
2023-04-22T03:13:36.226Z,5.72
2023-04-22T03:15:43.061Z,5.57
2023-04-22T03:17:47.855Z,6.05
2023-04-22T03:19:53.515Z,6.00
2023-04-22T03:22:02.135Z,5.60
2023-04-22T03:24:07.540Z,6.45
2023-04-22T03:26:13.871Z,5.35
2023-04-22T03:28:19.781Z,6.35
2023-04-22T03:30:24.876Z,7.03
2023-04-22T03:32:31.038Z,6.60
2023-04-22T03:34:50.896Z,4.80
2023-04-22T03:36:56.495Z,6.65
2023-04-22T03:39:03.976Z,5.53
2023-04-22T03:41:11.088Z,6.65
2023-04-22T03:43:23.255Z,6.93
2023-04-22T03:45:44.776Z,5.88
2023-04-22T03:47:57.370Z,6.57
2023-04-22T03:50:11.840Z,5.38
2023-04-22T03:52:16.829Z,6.03
2023-04-22T03:54:31.173Z,5.53
2023-04-22T03:56:36.935Z,5.10
2023-04-22T03:58:41.826Z,5.07
2023-04-22T04:00:48.362Z,5.80
2023-04-22T04:02:55.795Z,7.07
2023-04-22T04:05:05.664Z,6.22
2023-04-22T04:07:10.942Z,5.97
2023-04-22T04:09:15.853Z,6.93
2023-04-22T04:11:24.009Z,5.20
2023-04-22T04:13:32.622Z,8.07
2023-04-22T04:15:52.788Z,6.38
2023-04-22T04:18:01.553Z,7.53
2023-04-22T04:20:10.172Z,5.75
2023-04-22T04:22:18.523Z,6.20
2023-04-22T04:24:30.188Z,4.75
2023-04-22T04:26:45.400Z,6.35
2023-04-22T04:28:58.437Z,6.90
2023-04-22T04:31:05.566Z,6.47
2023-04-22T04:33:12.488Z,7.78
2023-04-22T04:35:20.627Z,7.70
2023-04-22T04:37:29.711Z,5.43
2023-04-22T04:39:38.974Z,6.03
2023-04-22T04:41:49.163Z,4.47
2023-04-22T04:43:55.265Z,6.68
2023-04-22T04:46:05.988Z,6.60
2023-04-22T04:48:13.852Z,7.38
2023-04-22T04:50:22.912Z,6.68
2023-04-22T04:52:28.440Z,5.63
2023-04-22T04:54:33.297Z,6.47
2023-04-22T04:56:38.763Z,5.38
2023-04-22T04:58:46.138Z,7.40
2023-04-22T05:00:57.703Z,7.70
2023-04-22T05:03:05.115Z,4.88
2023-04-22T05:05:12.231Z,6.70
2023-04-22T05:07:20.729Z,8.70
2023-04-22T05:09:27.806Z,5.28
2023-04-22T05:11:32.641Z,7.30
2023-04-22T05:13:39.436Z,5.60
2023-04-22T05:15:49.173Z,6.85
2023-04-22T05:17:54.773Z,7.72
2023-04-22T05:19:59.979Z,6.25
2023-04-22T05:22:05.006Z,5.22
2023-04-22T05:24:10.209Z,6.25
2023-04-22T05:26:15.874Z,9.48
2023-04-22T05:28:22.977Z,16.13
2023-04-22T05:30:31.902Z,46.63
2023-04-22T05:32:39.761Z,46.70
2023-04-22T05:34:44.781Z,55.00
2023-04-22T05:36:50.153Z,37.58
2023-04-22T05:38:54.943Z,27.95
2023-04-22T05:40:59.704Z,23.52
2023-04-22T05:43:04.838Z,22.38
2023-04-22T05:45:12.155Z,19.60
2023-04-22T05:47:17.177Z,17.50
2023-04-22T05:49:25.037Z,16.65
2023-04-22T05:51:45.155Z,12.18
2023-04-22T05:53:52.799Z,11.05
2023-04-22T05:55:58.407Z,10.38
2023-04-22T05:58:03.259Z,7.25
2023-04-22T06:00:30.890Z,8.02
2023-04-22T06:02:50.820Z,7.65
2023-04-22T06:04:58.860Z,8.07
2023-04-22T06:07:03.995Z,7.07
2023-04-22T06:09:10.204Z,5.60
2023-04-22T06:11:17.704Z,9.38
2023-04-22T06:13:22.533Z,9.02
2023-04-22T06:15:28.487Z,6.15
2023-04-22T06:17:33.762Z,7.35
2023-04-22T06:19:38.829Z,7.28
2023-04-22T06:21:46.375Z,7.13
2023-04-22T06:23:51.145Z,6.90
2023-04-22T06:25:56.357Z,6.63
2023-04-22T06:28:02.000Z,8.85
2023-04-22T06:30:07.820Z,6.22
2023-04-22T06:32:12.592Z,5.70
2023-04-22T06:34:17.438Z,6.78
2023-04-22T06:36:22.508Z,5.82
2023-04-22T06:38:35.918Z,6.43
2023-04-22T06:40:59.151Z,5.78
2023-04-22T06:43:07.661Z,6.95
2023-04-22T06:45:38.501Z,7.25
2023-04-22T06:50:21.298Z,7.25
2023-04-22T06:52:30.539Z,8.20
2023-04-22T06:54:39.809Z,6.63
2023-04-22T06:56:45.003Z,11.18
2023-04-22T06:58:50.032Z,6.18
2023-04-22T07:00:54.951Z,5.32
2023-04-22T07:02:59.942Z,6.40
2023-04-22T07:05:05.128Z,5.95
2023-04-22T07:07:10.117Z,6.88
2023-04-22T07:09:15.366Z,8.73
2023-04-22T07:11:23.259Z,5.88
2023-04-22T07:13:55.302Z,6.50
2023-04-22T07:16:00.162Z,5.55
2023-04-22T07:18:05.013Z,5.95
2023-04-22T07:20:11.217Z,5.90
2023-04-22T07:22:16.033Z,5.47
2023-04-22T07:24:20.793Z,7.07
2023-04-22T07:26:28.634Z,8.73
2023-04-22T07:28:33.622Z,6.70
2023-04-22T07:30:38.394Z,7.55
2023-04-22T07:32:43.223Z,6.55
2023-04-22T07:34:47.978Z,7.78
2023-04-22T07:36:53.920Z,6.60
2023-04-22T07:38:59.024Z,5.78
2023-04-22T07:41:03.866Z,6.53
2023-04-22T07:43:11.174Z,5.10
2023-04-22T07:45:16.164Z,6.57
2023-04-22T07:47:21.251Z,5.95
2023-04-22T07:49:26.285Z,5.43
2023-04-22T07:51:31.413Z,6.18
2023-04-22T07:53:36.162Z,6.78
2023-04-22T07:55:40.973Z,8.90
2023-04-22T07:57:45.912Z,5.63
2023-04-22T07:59:54.540Z,4.65
2023-04-22T08:01:59.507Z,6.03
2023-04-22T08:04:04.534Z,4.93
2023-04-22T08:06:09.940Z,6.30
2023-04-22T08:08:14.657Z,6.05
2023-04-22T08:10:19.420Z,8.52
2023-04-22T08:12:24.204Z,6.72
2023-04-22T08:14:29.043Z,7.47
2023-04-22T08:16:36.410Z,6.40
2023-04-22T08:18:41.297Z,5.13
2023-04-22T08:20:46.375Z,5.95
2023-04-22T08:22:51.690Z,9.05
2023-04-22T08:24:56.486Z,5.55
2023-04-22T08:27:02.703Z,5.75
2023-04-22T08:29:07.620Z,4.75
2023-04-22T08:31:13.161Z,4.55
2023-04-22T08:33:20.695Z,5.05
2023-04-22T08:35:25.448Z,5.80
2023-04-22T08:37:30.557Z,3.78
2023-04-22T08:39:35.627Z,3.97
2023-04-22T08:41:42.420Z,3.97
2023-04-22T08:43:48.134Z,30.50
2023-04-22T08:45:53.409Z,8.07
2023-04-22T08:48:00.039Z,3.92
2023-04-22T08:50:09.948Z,3.05
2023-04-22T08:52:15.606Z,3.38
2023-04-22T08:54:20.432Z,3.00
2023-04-22T08:56:25.505Z,3.80
2023-04-22T08:58:31.670Z,3.47
2023-04-22T09:00:37.273Z,3.95
2023-04-22T09:02:45.151Z,3.53
2023-04-22T09:04:51.345Z,2.65
2023-04-22T09:06:59.377Z,3.22
2023-04-22T09:09:04.545Z,3.80
2023-04-22T09:11:09.910Z,3.35
2023-04-22T09:13:16.848Z,3.10
2023-04-22T09:15:22.183Z,3.10
2023-04-22T09:17:33.861Z,3.10
2023-04-22T09:19:38.837Z,5.68
2023-04-22T09:21:45.166Z,3.30
2023-04-22T09:23:55.017Z,4.45
2023-04-22T09:26:00.529Z,4.13
2023-04-22T09:28:05.351Z,1.80
2023-04-22T09:30:12.594Z,2.60
2023-04-22T09:32:17.409Z,2.20
2023-04-22T09:34:25.281Z,2.10
2023-04-22T09:36:31.322Z,2.70
2023-04-22T09:38:36.341Z,2.25
2023-04-22T09:40:46.817Z,2.78
2023-04-22T09:42:52.745Z,2.40
2023-04-22T09:44:58.309Z,1.98
2023-04-22T09:47:04.502Z,4.30
2023-04-22T09:49:09.250Z,2.33
2023-04-22T09:51:18.952Z,4.78
2023-04-22T09:53:25.056Z,1.67
2023-04-22T09:55:31.878Z,1.75
2023-04-22T09:57:42.449Z,2.13
2023-04-22T09:59:47.211Z,4.35
2023-04-22T10:01:53.653Z,2.00
2023-04-22T10:03:58.555Z,3.00
2023-04-22T10:06:03.604Z,1.90
2023-04-22T10:08:09.692Z,2.00
2023-04-22T10:10:14.518Z,2.50
2023-04-22T10:12:26.082Z,2.33
2023-04-22T10:14:36.888Z,2.47
2023-04-22T10:16:43.235Z,1.77
2023-04-22T10:18:49.461Z,1.58
2023-04-22T10:20:56.187Z,1.40
2023-04-22T10:23:01.151Z,1.88
2023-04-22T10:25:06.094Z,1.45
2023-04-22T10:27:13.765Z,0.63
2023-04-22T10:29:20.870Z,2.45
2023-04-22T10:31:28.486Z,1.20
2023-04-22T10:33:40.771Z,1.52
2023-04-22T10:36:12.504Z,1.75
2023-04-22T10:38:18.977Z,1.70
2023-04-22T10:40:24.776Z,2.20
2023-04-22T10:42:31.779Z,3.13
2023-04-22T10:44:49.896Z,2.60
2023-04-22T10:47:04.359Z,1.83
2023-04-22T10:49:10.643Z,0.75
2023-04-22T10:51:47.800Z,1.30
2023-04-22T10:53:52.671Z,1.52
2023-04-22T10:55:57.562Z,1.48
2023-04-22T10:58:02.586Z,1.80
2023-04-22T11:00:41.948Z,1.35
2023-04-22T11:03:11.090Z,1.73
2023-04-22T11:05:26.007Z,1.38
2023-04-22T11:07:35.870Z,1.92
2023-04-22T11:09:42.737Z,1.42
2023-04-22T11:11:48.183Z,3.00
2023-04-22T11:13:53.340Z,2.08
2023-04-22T11:15:58.565Z,9.95
2023-04-22T11:18:06.493Z,20.55
2023-04-22T11:20:12.990Z,9.52
2023-04-22T11:22:17.932Z,3.38
2023-04-22T11:24:22.670Z,1.88
2023-04-22T11:26:37.847Z,2.40
2023-04-22T11:28:49.327Z,4.28
2023-04-22T11:30:54.343Z,1.55
2023-04-22T11:33:01.129Z,1.67
2023-04-22T11:35:11.263Z,1.52
2023-04-22T11:37:16.160Z,1.40
2023-04-22T11:39:20.867Z,1.30
2023-04-22T11:41:26.141Z,1.33
2023-04-22T11:43:31.186Z,1.45
2023-04-22T11:45:37.327Z,1.70
2023-04-22T11:47:43.293Z,1.05
2023-04-22T11:49:59.403Z,1.67
2023-04-22T11:52:06.968Z,3.03
2023-04-22T11:54:12.740Z,1.73
2023-04-22T11:56:17.505Z,1.67
2023-04-22T11:58:27.335Z,1.73
2023-04-22T12:00:34.629Z,1.92
2023-04-22T12:02:39.794Z,1.25
2023-04-22T12:04:46.800Z,1.35
2023-04-22T12:06:52.258Z,1.95
2023-04-22T12:09:01.275Z,2.00
2023-04-22T12:11:08.026Z,1.65
2023-04-22T12:13:13.126Z,1.58
2023-04-22T12:15:18.825Z,1.40
2023-04-22T12:17:26.952Z,2.25
2023-04-22T12:19:31.896Z,2.40
2023-04-22T12:21:37.510Z,5.53
2023-04-22T12:23:46.174Z,0.95
2023-04-22T12:25:53.620Z,1.73
2023-04-22T12:27:58.475Z,1.80
2023-04-22T12:30:02.966Z,1.70
2023-04-22T12:32:07.876Z,2.80
2023-04-22T12:34:13.027Z,0.90
2023-04-22T12:36:18.276Z,2.65
2023-04-22T12:38:23.095Z,1.70
2023-04-22T12:40:27.858Z,1.95
2023-04-22T12:42:35.476Z,1.42
2023-04-22T12:44:40.595Z,0.63
2023-04-22T12:46:46.792Z,1.55
2023-04-22T12:48:51.776Z,3.08
2023-04-22T12:50:57.575Z,1.58
2023-04-22T12:53:02.677Z,1.30
2023-04-22T12:55:08.121Z,1.80
2023-04-22T12:57:12.969Z,1.27
2023-04-22T12:59:20.364Z,0.93
2023-04-22T13:01:25.228Z,2.33
2023-04-22T13:03:30.278Z,1.05
2023-04-22T13:05:35.624Z,1.90
2023-04-22T13:07:40.811Z,1.10
2023-04-22T13:09:45.723Z,1.08
2023-04-22T13:11:50.791Z,0.90
2023-04-22T13:13:55.690Z,0.90
2023-04-22T13:16:03.050Z,1.33
2023-04-22T13:18:07.892Z,2.78
2023-04-22T13:20:14.756Z,0.90
2023-04-22T13:22:19.575Z,0.95
2023-04-22T13:24:24.467Z,0.77
2023-04-22T13:26:29.290Z,0.90
2023-04-22T13:28:34.041Z,0.93
2023-04-22T13:30:39.259Z,0.75
2023-04-22T13:32:46.663Z,2.35
2023-04-22T13:34:51.812Z,0.98
2023-04-22T13:36:56.645Z,1.00
2023-04-22T13:39:01.477Z,1.50
2023-04-22T13:41:06.213Z,1.23
2023-04-22T13:43:11.745Z,1.17
2023-04-22T13:45:16.562Z,0.80
2023-04-22T13:47:21.406Z,4.72
2023-04-22T13:49:29.644Z,0.63
2023-04-22T13:51:35.061Z,1.60
2023-04-22T13:53:39.830Z,1.35
2023-04-22T13:55:44.791Z,1.55
2023-04-22T13:57:49.698Z,1.77
2023-04-22T13:59:54.692Z,1.10
2023-04-22T14:01:59.638Z,1.40
2023-04-22T14:04:04.697Z,1.45
2023-04-22T14:06:12.305Z,1.25
2023-04-22T14:08:17.129Z,0.93
2023-04-22T14:10:22.921Z,1.23
2023-04-22T14:12:28.806Z,0.93
2023-04-22T14:14:33.520Z,0.93
2023-04-22T14:16:38.385Z,2.10
2023-04-22T14:18:45.830Z,1.17
2023-04-22T14:20:50.672Z,1.30
2023-04-22T14:22:57.919Z,1.08
2023-04-22T14:25:02.803Z,1.40
2023-04-22T14:27:07.653Z,1.05
2023-04-22T14:29:12.510Z,1.25
2023-04-22T14:31:17.360Z,1.20
2023-04-22T14:33:24.382Z,0.90
2023-04-22T14:35:29.877Z,0.90
2023-04-22T14:37:35.880Z,1.00
2023-04-22T14:39:43.350Z,1.35
2023-04-22T14:41:48.162Z,2.03
2023-04-22T14:43:52.988Z,2.28
2023-04-22T14:45:57.729Z,1.17
2023-04-22T14:48:03.234Z,1.27
2023-04-22T14:50:09.369Z,0.90
2023-04-22T14:52:14.202Z,0.95
2023-04-22T14:54:18.996Z,2.03
2023-04-22T14:56:26.311Z,0.93
2023-04-22T14:58:31.924Z,1.02
2023-04-22T15:00:36.784Z,1.85
2023-04-22T15:02:41.718Z,0.95
2023-04-22T15:04:47.320Z,1.70
2023-04-22T15:06:53.406Z,0.55
2023-04-22T15:08:58.083Z,1.30
2023-04-22T15:11:02.805Z,1.35
2023-04-22T15:13:10.104Z,0.70
2023-04-22T15:15:16.244Z,1.20
2023-04-22T15:17:21.766Z,1.55
2023-04-22T15:19:26.508Z,1.10
2023-04-22T15:21:32.155Z,2.58
2023-04-22T15:23:36.868Z,2.03
2023-04-22T15:25:41.601Z,1.42
2023-04-22T15:27:46.763Z,0.88
2023-04-22T15:29:55.209Z,0.80
2023-04-22T15:31:59.995Z,0.95
2023-04-22T15:34:04.713Z,0.95
2023-04-22T15:36:09.847Z,1.77
2023-04-22T15:38:14.519Z,1.38
2023-04-22T15:40:19.536Z,1.80
2023-04-22T15:42:24.297Z,0.95
2023-04-22T15:44:29.224Z,1.20
2023-04-22T15:46:36.596Z,1.27
2023-04-22T15:48:41.533Z,1.05
2023-04-22T15:50:46.240Z,1.65
2023-04-22T15:52:57.090Z,2.33
2023-04-22T15:55:02.043Z,1.33
2023-04-22T15:57:06.851Z,0.82
2023-04-22T15:59:11.939Z,1.20
2023-04-22T16:01:19.410Z,0.80
2023-04-22T16:03:27.589Z,2.50
2023-04-22T16:05:34.807Z,1.23
2023-04-22T16:07:40.390Z,0.85
2023-04-22T16:09:45.365Z,1.98
2023-04-22T16:11:50.123Z,1.05
2023-04-22T16:13:54.871Z,1.67
2023-04-22T16:15:59.876Z,1.42
2023-04-22T16:18:05.348Z,1.45
2023-04-22T16:20:13.510Z,1.60
2023-04-22T16:22:18.259Z,0.80
2023-04-22T16:24:23.141Z,2.17
2023-04-22T16:26:27.981Z,1.50
2023-04-22T16:28:32.764Z,1.05
2023-04-22T16:30:37.564Z,1.67
2023-04-22T16:32:42.541Z,0.95
2023-04-22T16:34:47.255Z,1.48
2023-04-22T16:36:54.575Z,1.65
2023-04-22T16:38:59.343Z,1.60
2023-04-22T16:41:04.294Z,1.52
2023-04-22T16:43:09.510Z,1.23
2023-04-22T16:45:14.575Z,1.77
2023-04-22T16:47:19.260Z,0.90
2023-04-22T16:49:24.095Z,1.08
2023-04-22T16:51:29.010Z,1.30
2023-04-22T16:53:36.379Z,2.47
2023-04-22T16:55:41.633Z,2.88
2023-04-22T16:57:47.746Z,2.20
2023-04-22T16:59:52.496Z,2.50
2023-04-22T17:01:57.431Z,2.25
2023-04-22T17:04:02.375Z,1.90
2023-04-22T17:06:07.736Z,1.65
2023-04-22T17:08:12.457Z,1.95
2023-04-22T17:10:19.915Z,1.23
2023-04-22T17:12:24.611Z,1.75
2023-04-22T17:14:29.716Z,2.85
2023-04-22T17:16:34.497Z,1.48
2023-04-22T17:18:39.275Z,1.20
2023-04-22T17:20:44.424Z,1.60
2023-04-22T17:22:49.343Z,2.10
2023-04-22T17:24:56.760Z,1.65
2023-04-22T17:27:04.729Z,2.03
2023-04-22T17:29:09.544Z,1.40
2023-04-22T17:31:14.686Z,2.90
2023-04-22T17:33:19.422Z,4.15
2023-04-22T17:35:24.215Z,2.35
2023-04-22T17:37:29.075Z,1.83
2023-04-22T17:39:34.162Z,1.52
2023-04-22T17:41:39.351Z,1.83
2023-04-22T17:43:46.782Z,2.35
2023-04-22T17:45:51.538Z,2.53
2023-04-22T17:47:56.295Z,2.22
2023-04-22T17:50:01.023Z,4.45
2023-04-22T17:52:05.894Z,2.28
2023-04-22T17:54:10.658Z,3.03
2023-04-22T17:56:15.519Z,2.95
2023-04-22T17:58:20.297Z,2.92
2023-04-22T18:00:27.733Z,3.25
2023-04-22T18:02:33.250Z,3.83
2023-04-22T18:04:38.826Z,2.30
2023-04-22T18:06:43.604Z,5.78
2023-04-22T18:08:48.340Z,0.95
2023-04-22T18:10:53.443Z,1.88
2023-04-22T18:12:58.268Z,3.08
2023-04-22T18:15:02.953Z,1.27
2023-04-22T18:17:10.284Z,2.30
2023-04-22T18:19:14.981Z,3.40
2023-04-22T18:21:19.932Z,1.50
2023-04-22T18:23:24.656Z,3.17
2023-04-22T18:25:29.893Z,4.00
2023-04-22T18:27:34.839Z,3.97
2023-04-22T18:29:39.905Z,5.35
2023-04-22T18:31:44.803Z,3.78
2023-04-22T18:33:52.252Z,7.40
2023-04-22T18:35:57.070Z,3.25
2023-04-22T18:38:01.887Z,3.80
2023-04-22T18:40:07.438Z,3.25
2023-04-22T18:42:12.323Z,3.53
2023-04-22T18:44:17.614Z,1.85
2023-04-22T18:46:22.533Z,2.30
2023-04-22T18:48:27.469Z,1.88
2023-04-22T18:50:34.939Z,1.92
2023-04-22T18:52:39.861Z,2.17
2023-04-22T18:54:44.763Z,2.00
2023-04-22T18:56:49.735Z,2.20
2023-04-22T18:58:55.295Z,2.33
2023-04-22T19:01:00.347Z,2.28
2023-04-22T19:03:05.386Z,3.42
2023-04-22T19:05:11.326Z,2.67
2023-04-22T19:07:19.004Z,3.05
2023-04-22T19:09:23.806Z,2.42
2023-04-22T19:11:28.813Z,2.10
2023-04-22T19:13:34.023Z,2.13
2023-04-22T19:15:38.897Z,2.95
2023-04-22T19:17:43.749Z,3.55
2023-04-22T19:19:48.724Z,4.13
2023-04-22T19:21:53.532Z,2.53
2023-04-22T19:24:01.047Z,4.70
2023-04-22T19:26:06.108Z,3.05
2023-04-22T19:28:11.044Z,2.30
2023-04-22T19:30:16.568Z,2.70
2023-04-22T19:32:21.718Z,3.60
2023-04-22T19:34:27.503Z,3.47
2023-04-22T19:36:32.611Z,4.10
2023-04-22T19:38:37.562Z,5.50
2023-04-22T19:40:45.011Z,4.78
2023-04-22T19:42:49.768Z,5.65
2023-04-22T19:44:54.974Z,4.57
2023-04-22T19:47:00.035Z,3.63
2023-04-22T19:49:06.700Z,4.00
2023-04-22T19:51:12.938Z,4.53
2023-04-22T19:53:18.941Z,3.40
2023-04-22T19:55:24.563Z,4.82
2023-04-22T19:57:32.425Z,3.60
2023-04-22T19:59:37.929Z,5.28
2023-04-22T20:01:43.659Z,3.63
2023-04-22T20:03:49.830Z,5.05
2023-04-22T20:05:55.211Z,4.13
2023-04-22T20:08:01.559Z,5.65
2023-04-22T20:10:10.028Z,3.55
2023-04-22T20:12:15.954Z,5.40
2023-04-22T20:14:24.367Z,3.85
2023-04-22T20:16:29.762Z,5.05
2023-04-22T20:18:35.073Z,4.28
2023-04-22T20:20:40.300Z,4.68
2023-04-22T20:22:46.167Z,4.93
2023-04-22T20:24:55.737Z,4.97
2023-04-22T20:27:01.130Z,5.35
2023-04-22T20:29:08.160Z,5.07
2023-04-22T20:31:18.514Z,6.40
2023-04-22T20:33:23.862Z,9.70
2023-04-22T20:35:29.534Z,5.13
2023-04-22T20:37:36.132Z,6.03
2023-04-22T20:39:42.422Z,4.60
2023-04-22T20:41:49.122Z,5.05
2023-04-22T20:43:54.169Z,4.97
2023-04-22T20:45:59.041Z,6.90
2023-04-22T20:48:06.882Z,4.85
2023-04-22T20:50:13.278Z,4.13
2023-04-22T20:52:18.329Z,4.68
2023-04-22T20:54:29.067Z,6.93
2023-04-22T20:56:47.940Z,6.00
2023-04-22T20:58:52.701Z,5.13
2023-04-22T21:00:57.700Z,4.97
2023-04-22T21:03:03.356Z,5.20
2023-04-22T21:05:13.909Z,6.18
2023-04-22T21:07:20.611Z,4.53
2023-04-22T21:09:27.609Z,5.85
2023-04-22T21:11:33.075Z,5.28
2023-04-22T21:13:38.839Z,6.28
2023-04-22T21:15:47.223Z,4.88
2023-04-22T21:17:56.756Z,5.72
2023-04-22T21:20:01.996Z,5.75
2023-04-22T21:22:10.586Z,4.70
2023-04-22T21:24:17.339Z,3.95
2023-04-22T21:26:22.346Z,4.90
2023-04-22T21:28:27.954Z,6.78
2023-04-22T21:30:33.449Z,4.80
2023-04-22T21:32:40.777Z,4.65
2023-04-22T21:34:45.969Z,4.38
2023-04-22T21:36:51.031Z,4.30
2023-04-22T21:38:58.765Z,5.15
2023-04-22T21:41:03.625Z,6.60
2023-04-22T21:43:08.788Z,4.68
2023-04-22T21:45:13.871Z,10.15
2023-04-22T21:47:18.678Z,5.22
2023-04-22T21:49:23.455Z,6.20
2023-04-22T21:51:28.898Z,6.65
2023-04-22T21:53:33.811Z,5.93
2023-04-22T21:55:41.769Z,4.60
2023-04-22T21:57:46.693Z,5.10
2023-04-22T21:59:51.463Z,5.13
2023-04-22T22:01:56.226Z,6.18
2023-04-22T22:04:01.175Z,4.25
2023-04-22T22:06:06.590Z,4.90
2023-04-22T22:08:11.820Z,4.53
2023-04-22T22:10:19.436Z,4.78
2023-04-22T22:12:27.040Z,3.80
2023-04-22T22:14:31.780Z,4.22
2023-04-22T22:16:38.544Z,3.78
2023-04-22T22:18:45.751Z,4.28
2023-04-22T22:20:50.740Z,4.38
2023-04-22T22:22:55.476Z,4.63
2023-04-22T22:25:00.317Z,3.85
2023-04-22T22:27:05.588Z,3.65
2023-04-22T22:29:15.706Z,4.35
2023-04-22T22:31:20.664Z,3.83
2023-04-22T22:33:25.620Z,4.95
2023-04-22T22:35:30.481Z,3.65
2023-04-22T22:37:35.515Z,4.35
2023-04-22T22:39:40.325Z,4.50
2023-04-22T22:41:45.212Z,3.90
2023-04-22T22:43:49.980Z,4.18
2023-04-22T22:45:57.469Z,3.95
2023-04-22T22:48:02.445Z,4.38
2023-04-22T22:50:08.793Z,3.95
2023-04-22T22:52:13.701Z,3.75
2023-04-22T22:54:18.566Z,5.38
2023-04-22T22:56:23.693Z,3.88
2023-04-22T22:58:28.819Z,3.72
2023-04-22T23:00:33.580Z,4.97
2023-04-22T23:02:41.012Z,4.60
2023-04-22T23:04:46.110Z,5.03
2023-04-22T23:06:51.297Z,4.65
2023-04-22T23:08:56.091Z,3.70
2023-04-22T23:11:02.154Z,5.90
2023-04-22T23:13:07.069Z,5.53
2023-04-22T23:15:12.823Z,5.88
2023-04-22T23:17:17.952Z,6.03
2023-04-22T23:19:26.278Z,4.53
2023-04-22T23:21:32.004Z,4.88
2023-04-22T23:23:39.089Z,4.95
2023-04-22T23:25:44.640Z,4.18
2023-04-22T23:27:50.326Z,4.75
2023-04-22T23:29:55.805Z,5.22
2023-04-22T23:32:05.693Z,7.20
2023-04-22T23:34:11.947Z,7.13
2023-04-22T23:36:21.247Z,7.35
2023-04-22T23:38:27.460Z,7.85
2023-04-22T23:40:32.334Z,5.38
2023-04-22T23:42:37.086Z,5.85
2023-04-22T23:44:42.260Z,4.60
2023-04-22T23:46:48.197Z,4.80
2023-04-22T23:48:53.173Z,4.60
2023-04-22T23:50:58.076Z,4.32
2023-04-22T23:53:05.840Z,5.97
2023-04-22T23:55:13.117Z,4.43
2023-04-22T23:57:19.400Z,4.20
2023-04-22T23:59:24.996Z,5.70
